createdAt,value
2023-03-06T00:00:50.643Z,21.35
2023-03-06T00:03:17.669Z,22.63
2023-03-06T00:05:44.815Z,19.50
2023-03-06T00:08:11.830Z,18.98
2023-03-06T00:10:39.273Z,22.70
2023-03-06T00:13:09.109Z,20.98
2023-03-06T00:15:35.957Z,18.77
2023-03-06T00:18:06.390Z,19.05
2023-03-06T00:20:34.346Z,20.52
2023-03-06T00:23:01.149Z,18.27
2023-03-06T00:25:28.044Z,20.88
2023-03-06T00:27:54.839Z,17.80
2023-03-06T00:30:24.829Z,20.70
2023-03-06T00:32:53.274Z,20.08
2023-03-06T00:35:21.257Z,21.95
2023-03-06T00:37:48.300Z,21.00
2023-03-06T00:40:17.984Z,21.55
2023-03-06T00:42:45.500Z,19.15
2023-03-06T00:45:13.571Z,17.75
2023-03-06T00:47:40.678Z,18.48
2023-03-06T00:50:08.677Z,19.42
2023-03-06T00:52:36.353Z,16.63
2023-03-06T00:55:03.696Z,19.98
2023-03-06T00:57:30.469Z,16.65
2023-03-06T00:59:57.601Z,17.10
2023-03-06T01:02:24.934Z,18.65
2023-03-06T01:04:54.484Z,17.98
2023-03-06T01:07:21.382Z,21.42
2023-03-06T01:09:48.207Z,18.42
2023-03-06T01:12:15.359Z,22.13
2023-03-06T01:14:42.242Z,18.77
2023-03-06T01:17:11.655Z,19.02
2023-03-06T01:19:38.533Z,18.10
2023-03-06T01:22:05.325Z,20.35
2023-03-06T01:24:32.160Z,17.95
2023-03-06T01:26:58.939Z,18.95
2023-03-06T01:29:26.484Z,22.10
2023-03-06T01:31:53.452Z,24.38
2023-03-06T01:34:20.382Z,24.17
2023-03-06T01:36:47.178Z,19.42
2023-03-06T01:39:14.315Z,21.92
2023-03-06T01:41:41.602Z,22.92
2023-03-06T01:44:13.656Z,23.00
2023-03-06T01:46:42.990Z,20.38
2023-03-06T01:49:23.713Z,21.58
2023-03-06T01:52:08.977Z,20.30
2023-03-06T01:55:01.804Z,19.73
2023-03-06T01:57:40.328Z,18.60
2023-03-06T02:00:14.833Z,19.70
2023-03-06T02:02:46.703Z,19.48
2023-03-06T02:05:14.189Z,17.52
2023-03-06T02:07:43.339Z,19.65
2023-03-06T02:10:14.705Z,22.10
2023-03-06T02:12:43.809Z,22.23
2023-03-06T02:15:13.384Z,20.17
2023-03-06T02:17:43.716Z,21.95
2023-03-06T02:20:19.890Z,22.05
2023-03-06T02:22:50.205Z,25.58
2023-03-06T02:25:38.297Z,19.75
2023-03-06T02:28:08.897Z,24.05
2023-03-06T02:30:37.057Z,24.35
2023-03-06T02:33:05.000Z,19.65
2023-03-06T02:35:38.441Z,19.98
2023-03-06T02:38:09.893Z,19.48
2023-03-06T02:40:37.434Z,22.75
2023-03-06T02:43:05.706Z,21.35
2023-03-06T02:45:37.373Z,20.80
2023-03-06T02:48:04.950Z,18.20
2023-03-06T02:50:32.646Z,19.58
2023-03-06T02:53:01.205Z,22.23
2023-03-06T02:55:30.924Z,21.92
2023-03-06T02:57:58.307Z,18.25
2023-03-06T03:00:25.706Z,18.45
2023-03-06T03:02:53.160Z,21.60
2023-03-06T03:05:20.191Z,18.88
2023-03-06T03:07:52.917Z,19.85
2023-03-06T03:10:20.958Z,20.10
2023-03-06T03:12:48.368Z,21.90
2023-03-06T03:15:16.359Z,19.23
2023-03-06T03:17:44.145Z,18.83
2023-03-06T03:20:15.589Z,22.92
2023-03-06T03:22:42.737Z,17.35
2023-03-06T03:25:11.349Z,18.98
2023-03-06T03:27:38.188Z,20.02
2023-03-06T03:30:05.899Z,22.25
2023-03-06T03:32:32.725Z,21.65
2023-03-06T03:35:00.074Z,16.42
2023-03-06T03:37:27.739Z,18.88
2023-03-06T03:39:54.523Z,22.95
2023-03-06T03:42:21.408Z,20.40
2023-03-06T03:44:49.761Z,17.95
2023-03-06T03:47:17.888Z,21.55
2023-03-06T03:49:44.776Z,26.77
2023-03-06T03:52:11.613Z,21.73
2023-03-06T03:54:40.228Z,18.42
2023-03-06T03:57:07.096Z,20.02
2023-03-06T03:59:37.704Z,20.27
2023-03-06T04:02:21.786Z,18.92
2023-03-06T04:04:57.387Z,21.45
2023-03-06T04:07:24.477Z,22.10
2023-03-06T04:09:51.456Z,18.40
2023-03-06T04:12:18.961Z,18.10
2023-03-06T04:14:46.614Z,18.02
2023-03-06T04:17:14.070Z,16.63
2023-03-06T04:19:40.916Z,15.63
2023-03-06T04:22:07.919Z,16.85
2023-03-06T04:24:38.085Z,21.52
2023-03-06T04:27:05.357Z,19.98
2023-03-06T04:29:32.402Z,16.48
2023-03-06T04:31:59.990Z,19.00
2023-03-06T04:34:27.016Z,21.80
2023-03-06T04:36:53.866Z,16.05
2023-03-06T04:39:20.900Z,17.08
2023-03-06T04:41:48.544Z,20.23
2023-03-06T04:44:15.579Z,18.92
2023-03-06T04:46:42.334Z,18.48
2023-03-06T04:49:09.225Z,19.45
2023-03-06T04:51:36.986Z,16.92
2023-03-06T04:54:04.525Z,19.23
2023-03-06T04:56:31.445Z,19.08
2023-03-06T04:58:58.517Z,18.55
2023-03-06T05:01:25.748Z,16.73
2023-03-06T05:03:52.755Z,17.98
2023-03-06T05:06:19.514Z,17.60
2023-03-06T05:08:47.140Z,19.83
2023-03-06T05:11:13.951Z,17.58
2023-03-06T05:13:43.184Z,18.95
2023-03-06T05:16:10.414Z,21.05
2023-03-06T05:18:37.350Z,20.35
2023-03-06T05:21:05.813Z,20.50
2023-03-06T05:23:34.932Z,23.80
2023-03-06T05:26:04.740Z,26.70
2023-03-06T05:28:31.483Z,24.50
2023-03-06T05:30:58.253Z,25.15
2023-03-06T05:33:26.575Z,22.13
2023-03-06T05:35:53.420Z,24.02
2023-03-06T05:38:20.429Z,20.77
2023-03-06T05:40:47.930Z,16.48
2023-03-06T05:43:15.006Z,19.90
2023-03-06T05:45:41.857Z,21.27
2023-03-06T05:48:09.373Z,23.05
2023-03-06T05:50:36.434Z,18.77
2023-03-06T05:53:03.803Z,20.60
2023-03-06T05:55:31.144Z,20.00
2023-03-06T05:57:58.137Z,19.77
2023-03-06T06:00:25.236Z,20.85
2023-03-06T06:02:52.453Z,19.75
2023-03-06T06:05:19.623Z,18.38
2023-03-06T06:07:46.449Z,23.25
2023-03-06T06:10:13.679Z,22.30
2023-03-06T06:12:40.559Z,20.50
2023-03-06T06:15:08.001Z,19.63
2023-03-06T06:17:34.923Z,22.75
2023-03-06T06:20:01.751Z,18.35
2023-03-06T06:22:29.956Z,23.73
2023-03-06T06:24:56.764Z,18.50
2023-03-06T06:27:23.568Z,18.17
2023-03-06T06:29:52.306Z,20.85
2023-03-06T06:32:19.539Z,20.77
2023-03-06T06:34:46.408Z,16.15
2023-03-06T06:37:13.454Z,15.18
2023-03-06T06:39:40.448Z,19.02
2023-03-06T06:42:28.924Z,15.18
2023-03-06T06:44:55.403Z,18.13
2023-03-06T06:47:24.664Z,21.67
2023-03-06T06:49:53.181Z,18.42
2023-03-06T06:52:20.426Z,17.75
2023-03-06T06:54:47.258Z,18.95
2023-03-06T06:57:14.838Z,18.95
2023-03-06T06:59:41.661Z,17.05
2023-03-06T07:02:15.694Z,20.42
2023-03-06T07:05:00.347Z,19.35
2023-03-06T07:07:29.648Z,21.15
2023-03-06T07:09:56.520Z,19.25
2023-03-06T07:12:23.445Z,22.60
2023-03-06T07:14:50.411Z,21.27
2023-03-06T07:17:17.211Z,20.20
2023-03-06T07:19:44.054Z,21.52
2023-03-06T07:22:10.980Z,18.48
2023-03-06T07:24:37.866Z,16.33
2023-03-06T07:27:04.806Z,21.48
2023-03-06T07:29:34.028Z,18.83
2023-03-06T07:32:01.360Z,19.80
2023-03-06T07:34:28.328Z,22.80
2023-03-06T07:36:55.222Z,21.38
2023-03-06T07:39:22.560Z,23.02
2023-03-06T07:41:49.352Z,23.83
2023-03-06T07:44:16.146Z,20.50
2023-03-06T07:46:43.016Z,21.50
2023-03-06T07:49:09.896Z,20.60
2023-03-06T07:51:36.776Z,21.15
2023-03-06T07:54:03.667Z,23.92
2023-03-06T07:56:30.478Z,19.30
2023-03-06T07:58:57.348Z,23.25
2023-03-06T08:01:24.352Z,19.85
2023-03-06T08:03:51.586Z,21.52
2023-03-06T08:06:26.315Z,19.92
2023-03-06T08:08:54.583Z,20.92
2023-03-06T08:11:24.503Z,24.17
2023-03-06T08:13:52.991Z,21.33
2023-03-06T08:16:25.854Z,20.70
2023-03-06T08:18:52.838Z,26.92
2023-03-06T08:21:22.581Z,24.70
2023-03-06T08:23:50.511Z,23.73
2023-03-06T08:26:23.180Z,24.50
2023-03-06T08:28:55.827Z,22.88
2023-03-06T08:31:37.711Z,25.52
2023-03-06T08:34:09.529Z,21.77
2023-03-06T08:36:36.498Z,19.33
2023-03-06T08:39:04.569Z,23.67
2023-03-06T08:41:32.269Z,21.75
2023-03-06T08:43:59.151Z,18.88
2023-03-06T08:46:27.967Z,24.60
2023-03-06T08:48:54.767Z,21.50
2023-03-06T08:51:22.103Z,23.08
2023-03-06T08:53:50.282Z,22.50
2023-03-06T08:56:17.053Z,21.40
2023-03-06T08:58:43.974Z,19.45
2023-03-06T09:01:16.308Z,24.55
2023-03-06T09:03:43.988Z,24.98
2023-03-06T09:06:10.911Z,24.20
2023-03-06T09:08:38.359Z,22.00
2023-03-06T09:11:05.264Z,18.00
2023-03-06T09:13:32.171Z,21.10
2023-03-06T09:15:59.141Z,23.20
2023-03-06T09:18:25.992Z,18.33
2023-03-06T09:20:53.577Z,18.40
2023-03-06T09:23:20.431Z,18.10
2023-03-06T09:25:56.592Z,19.70
2023-03-06T09:28:23.813Z,18.90
2023-03-06T09:30:50.947Z,17.98
2023-03-06T09:33:17.953Z,16.10
2023-03-06T09:35:56.470Z,19.13
2023-03-06T09:38:26.937Z,21.30
2023-03-06T09:43:41.914Z,20.50
2023-03-06T09:46:47.091Z,20.13
2023-03-06T09:49:46.496Z,14.52
2023-03-06T09:52:20.820Z,17.55
2023-03-06T09:54:55.146Z,19.25
2023-03-06T09:57:28.454Z,20.02
2023-03-06T09:59:58.917Z,18.25
2023-03-06T10:02:41.077Z,19.02
2023-03-06T10:05:15.402Z,28.23
2023-03-06T10:07:50.989Z,19.33
2023-03-06T10:10:50.643Z,17.80
2023-03-06T10:13:38.456Z,18.42
2023-03-06T10:16:32.364Z,17.85
2023-03-06T10:19:05.356Z,17.15
2023-03-06T10:21:54.009Z,17.45
2023-03-06T10:24:49.310Z,17.98
2023-03-06T10:27:30.113Z,12.68
2023-03-06T10:30:14.426Z,14.73
2023-03-06T10:32:59.005Z,15.90
2023-03-06T10:35:32.745Z,15.98
2023-03-06T10:38:11.153Z,15.98
2023-03-06T10:40:50.920Z,12.77
2023-03-06T10:43:17.806Z,11.63
2023-03-06T10:45:50.687Z,13.25
2023-03-06T10:48:27.000Z,14.50
2023-03-06T10:51:17.820Z,12.55
2023-03-06T10:53:54.225Z,11.50
2023-03-06T10:56:34.504Z,11.77
2023-03-06T10:59:15.093Z,12.70
2023-03-06T11:01:44.849Z,14.18
2023-03-06T11:04:14.720Z,12.32
2023-03-06T11:06:41.617Z,11.48
2023-03-06T11:09:26.913Z,10.48
2023-03-06T11:12:22.137Z,12.68
2023-03-06T11:15:09.865Z,11.35
2023-03-06T11:17:48.828Z,12.15
2023-03-06T11:20:26.302Z,14.45
2023-03-06T11:23:02.657Z,15.68
2023-03-06T11:25:35.226Z,11.77
2023-03-06T11:28:22.752Z,12.38
2023-03-06T11:31:06.008Z,13.20
2023-03-06T11:34:09.291Z,13.15
2023-03-06T11:36:41.384Z,14.32
2023-03-06T11:39:31.455Z,11.30
2023-03-06T11:41:58.294Z,14.88
2023-03-06T11:44:28.212Z,13.15
2023-03-06T11:47:08.258Z,11.27
2023-03-06T11:49:46.734Z,10.73
2023-03-06T11:52:35.172Z,14.93
2023-03-06T11:55:02.297Z,13.38
2023-03-06T11:57:38.226Z,11.27
2023-03-06T12:00:08.263Z,13.85
2023-03-06T12:02:56.167Z,12.45
2023-03-06T12:05:31.655Z,12.23
2023-03-06T12:08:13.296Z,11.52
2023-03-06T12:10:51.897Z,11.35
2023-03-06T12:13:38.715Z,14.75
2023-03-06T12:16:26.959Z,11.13
2023-03-06T12:19:12.392Z,9.40
2023-03-06T12:21:50.238Z,9.63
2023-03-06T12:24:20.496Z,10.18
2023-03-06T12:27:09.046Z,11.85
2023-03-06T12:30:02.225Z,9.85
2023-03-06T12:32:37.611Z,9.43
2023-03-06T12:35:28.206Z,12.35
2023-03-06T12:38:04.105Z,13.90
2023-03-06T12:40:53.258Z,9.80
2023-03-06T12:43:42.784Z,9.60
2023-03-06T12:46:18.903Z,13.32
2023-03-06T12:48:57.520Z,10.63
2023-03-06T12:51:24.612Z,9.65
2023-03-06T12:53:51.961Z,10.70
2023-03-06T12:56:20.805Z,12.50
2023-03-06T12:58:54.261Z,8.98
2023-03-06T13:01:30.240Z,9.15
2023-03-06T13:04:13.219Z,7.72
2023-03-06T13:07:04.989Z,9.45
2023-03-06T13:09:42.781Z,9.30
2023-03-06T13:12:09.587Z,9.43
2023-03-06T13:14:45.190Z,7.78
2023-03-06T13:17:24.551Z,7.88
2023-03-06T13:20:13.177Z,7.55
2023-03-06T13:22:42.016Z,10.32
2023-03-06T13:25:21.078Z,8.98
2023-03-06T13:28:03.337Z,10.02
2023-03-06T13:30:39.277Z,7.75
2023-03-06T13:33:27.303Z,8.73
2023-03-06T13:35:57.054Z,7.47
2023-03-06T13:38:36.268Z,7.38
2023-03-06T13:41:22.076Z,8.82
2023-03-06T13:43:56.542Z,7.93
2023-03-06T13:46:27.335Z,7.80
2023-03-06T13:49:09.653Z,9.55
2023-03-06T13:51:55.755Z,7.03
2023-03-06T13:54:50.964Z,9.57
2023-03-06T13:57:36.434Z,8.07
2023-03-06T14:00:14.486Z,14.63
2023-03-06T14:02:59.578Z,10.48
2023-03-06T14:05:53.482Z,8.63
2023-03-06T14:08:27.116Z,9.00
2023-03-06T14:11:08.741Z,8.88
2023-03-06T14:13:47.550Z,9.30
2023-03-06T14:16:37.599Z,9.18
2023-03-06T14:19:17.368Z,8.57
2023-03-06T14:21:56.335Z,12.98
2023-03-06T14:24:43.369Z,9.25
2023-03-06T14:27:18.877Z,13.52
2023-03-06T14:29:49.775Z,10.05
2023-03-06T14:32:21.446Z,11.02
2023-03-06T14:34:48.606Z,11.88
2023-03-06T14:37:24.630Z,12.68
2023-03-06T14:39:51.953Z,11.27
2023-03-06T14:42:24.906Z,10.40
2023-03-06T14:45:16.217Z,11.55
2023-03-06T14:47:44.273Z,11.85
2023-03-06T14:50:33.157Z,13.35
2023-03-06T14:53:04.865Z,12.60
2023-03-06T14:55:34.952Z,15.82
2023-03-06T14:58:11.716Z,14.85
2023-03-06T15:00:44.213Z,12.75
2023-03-06T15:03:20.553Z,11.00
2023-03-06T15:05:48.693Z,20.58
2023-03-06T15:08:24.107Z,17.35
2023-03-06T15:11:03.594Z,16.83
2023-03-06T15:13:31.884Z,13.77
2023-03-06T15:16:01.725Z,13.70
2023-03-06T15:18:42.632Z,12.98
2023-03-06T15:21:40.681Z,13.50
2023-03-06T15:24:29.451Z,14.70
2023-03-06T15:27:06.585Z,13.70
2023-03-06T15:29:38.163Z,17.98
2023-03-06T15:32:32.451Z,16.30
2023-03-06T15:35:38.227Z,19.55
2023-03-06T15:38:24.603Z,15.45
2023-03-06T15:40:57.213Z,14.35
2023-03-06T15:43:24.165Z,15.50
2023-03-06T15:45:56.686Z,13.00
2023-03-06T15:48:23.817Z,15.32
2023-03-06T15:50:51.022Z,19.50
2023-03-06T15:53:17.838Z,13.98
2023-03-06T15:55:44.597Z,16.17
2023-03-06T15:58:16.462Z,14.10
2023-03-06T16:00:44.065Z,16.55
2023-03-06T16:03:11.842Z,19.77
2023-03-06T16:05:39.028Z,27.52
2023-03-06T16:08:06.479Z,18.30
2023-03-06T16:10:37.390Z,15.75
2023-03-06T16:13:08.573Z,18.63
2023-03-06T16:15:47.697Z,16.08
2023-03-06T16:18:15.137Z,14.27
2023-03-06T16:20:42.288Z,16.42
2023-03-06T16:23:12.342Z,15.52
2023-03-06T16:25:42.068Z,17.13
2023-03-06T16:28:14.428Z,15.23
2023-03-06T16:30:43.336Z,16.48
2023-03-06T16:33:11.876Z,16.77
2023-03-06T16:35:38.725Z,12.73
2023-03-06T16:38:05.915Z,17.13
2023-03-06T16:40:37.624Z,19.23
2023-03-06T16:43:05.804Z,17.08
2023-03-06T16:45:37.169Z,14.95
2023-03-06T16:48:04.822Z,18.65
2023-03-06T16:50:36.261Z,18.88
2023-03-06T16:53:04.189Z,17.92
2023-03-06T16:55:31.078Z,19.35
2023-03-06T16:57:57.897Z,17.65
2023-03-06T17:00:25.121Z,17.45
2023-03-06T17:02:53.341Z,18.50
2023-03-06T17:05:20.445Z,17.98
2023-03-06T17:07:47.525Z,20.15
2023-03-06T17:10:17.671Z,19.00
2023-03-06T17:12:44.836Z,16.45
2023-03-06T17:15:15.132Z,19.33
2023-03-06T17:17:41.965Z,17.58
2023-03-06T17:20:11.768Z,22.25
2023-03-06T17:22:38.849Z,21.13
2023-03-06T17:25:06.923Z,21.23
2023-03-06T17:27:34.598Z,20.27
2023-03-06T17:30:01.873Z,18.20
2023-03-06T17:32:29.151Z,22.10
2023-03-06T17:34:56.493Z,20.52
2023-03-06T17:37:23.496Z,23.83
2023-03-06T17:39:50.348Z,21.15
2023-03-06T17:42:17.233Z,26.73
2023-03-06T17:44:44.044Z,20.13
2023-03-06T17:47:11.390Z,20.20
2023-03-06T17:49:38.434Z,23.15
2023-03-06T17:52:05.976Z,21.30
2023-03-06T17:54:33.398Z,20.98
2023-03-06T17:57:03.495Z,19.98
2023-03-06T17:59:31.339Z,17.08
2023-03-06T18:01:59.043Z,18.95
2023-03-06T18:04:26.702Z,31.60
2023-03-06T18:06:53.520Z,26.42
2023-03-06T18:09:20.479Z,25.17
2023-03-06T18:11:47.334Z,23.60
2023-03-06T18:14:14.334Z,24.23
2023-03-06T18:16:41.297Z,17.10
2023-03-06T18:19:11.175Z,17.33
2023-03-06T18:21:39.608Z,18.48
2023-03-06T18:24:06.983Z,17.42
2023-03-06T18:26:33.909Z,16.77
2023-03-06T18:29:04.389Z,17.15
2023-03-06T18:31:34.873Z,17.08
2023-03-06T18:34:07.579Z,17.73
2023-03-06T18:36:35.788Z,16.38
2023-03-06T18:39:03.870Z,20.20
2023-03-06T18:41:31.468Z,20.85
2023-03-06T18:44:00.298Z,17.08
2023-03-06T18:46:32.018Z,18.65
2023-03-06T18:48:58.993Z,21.50
2023-03-06T18:51:26.270Z,17.75
2023-03-06T18:53:53.373Z,20.58
2023-03-06T18:56:21.858Z,22.05
2023-03-06T18:58:50.411Z,23.27
2023-03-06T19:01:17.846Z,21.77
2023-03-06T19:03:45.248Z,20.30
2023-03-06T19:06:15.050Z,17.75
2023-03-06T19:08:42.343Z,19.90
2023-03-06T19:11:16.793Z,16.63
2023-03-06T19:13:43.973Z,22.15
2023-03-06T19:16:19.333Z,17.60
2023-03-06T19:18:46.231Z,17.65
2023-03-06T19:21:15.981Z,18.67
2023-03-06T19:23:42.995Z,22.13
2023-03-06T19:26:10.571Z,19.25
2023-03-06T19:28:39.019Z,18.48
2023-03-06T19:31:19.518Z,17.30
2023-03-06T19:33:47.920Z,21.83
2023-03-06T19:36:15.880Z,22.52
2023-03-06T19:38:43.086Z,22.95
2023-03-06T19:41:13.959Z,32.63
2023-03-06T19:43:41.956Z,18.27
2023-03-06T19:46:13.520Z,17.63
2023-03-06T19:48:41.385Z,17.58
2023-03-06T19:51:08.963Z,19.38
2023-03-06T19:53:36.712Z,19.63
2023-03-06T19:56:09.511Z,16.35
2023-03-06T19:58:36.874Z,18.92
2023-03-06T20:01:06.000Z,19.42
2023-03-06T20:03:32.916Z,17.98
2023-03-06T20:05:59.798Z,18.30
2023-03-06T20:08:26.519Z,16.83
2023-03-06T20:10:53.372Z,19.73
2023-03-06T20:13:20.282Z,18.65
2023-03-06T20:15:47.132Z,19.38
2023-03-06T20:18:14.162Z,19.85
2023-03-06T20:20:41.112Z,16.63
2023-03-06T20:23:07.902Z,21.95
2023-03-06T20:25:36.341Z,19.02
2023-03-06T20:28:04.437Z,17.55
2023-03-06T20:30:37.849Z,18.73
2023-03-06T20:33:09.994Z,19.73
2023-03-06T20:35:41.253Z,16.90
2023-03-06T20:38:08.637Z,18.40
2023-03-06T20:40:39.893Z,18.48
2023-03-06T20:43:06.908Z,20.58
2023-03-06T20:45:34.773Z,20.85
2023-03-06T20:48:01.571Z,20.60
2023-03-06T20:50:28.339Z,19.67
2023-03-06T20:52:58.405Z,23.02
2023-03-06T20:55:25.265Z,16.88
2023-03-06T20:57:52.743Z,21.55
2023-03-06T21:00:21.182Z,18.77
2023-03-06T21:02:48.076Z,18.23
2023-03-06T21:05:15.100Z,18.30
2023-03-06T21:07:41.958Z,22.42
2023-03-06T21:10:09.507Z,27.23
2023-03-06T21:12:36.327Z,23.52
2023-03-06T21:15:03.680Z,23.08
2023-03-06T21:17:30.566Z,19.35
2023-03-06T21:19:58.478Z,24.92
2023-03-06T21:22:25.449Z,17.63
2023-03-06T21:24:52.405Z,19.13
2023-03-06T21:27:19.164Z,17.40
2023-03-06T21:29:46.485Z,18.35
2023-03-06T21:32:13.299Z,17.67
2023-03-06T21:34:40.906Z,15.57
2023-03-06T21:37:07.699Z,16.45
2023-03-06T21:39:35.082Z,17.92
2023-03-06T21:42:01.971Z,17.40
2023-03-06T21:44:28.755Z,21.80
2023-03-06T21:46:55.553Z,18.00
2023-03-06T21:49:25.986Z,18.90
2023-03-06T21:51:53.896Z,27.23
2023-03-06T21:54:21.405Z,19.45
2023-03-06T21:56:48.366Z,17.88
2023-03-06T21:59:15.139Z,18.98
2023-03-06T22:01:42.663Z,26.45
2023-03-06T22:04:09.785Z,20.92
2023-03-06T22:06:39.401Z,19.02
2023-03-06T22:09:06.752Z,22.90
2023-03-06T22:11:37.026Z,20.13
2023-03-06T22:14:05.518Z,19.15
2023-03-06T22:16:32.800Z,20.48
2023-03-06T22:18:59.733Z,24.33
2023-03-06T22:21:26.807Z,18.30
2023-03-06T22:23:57.689Z,19.80
2023-03-06T22:26:25.752Z,26.50
2023-03-06T22:28:52.669Z,26.08
2023-03-06T22:31:24.052Z,26.08
2023-03-06T22:33:52.582Z,20.02
2023-03-06T22:36:21.107Z,18.40
2023-03-06T22:38:49.145Z,25.55
2023-03-06T22:41:17.656Z,25.20
2023-03-06T22:43:44.593Z,24.20
2023-03-06T22:46:13.958Z,21.63
2023-03-06T22:48:41.327Z,18.88
2023-03-06T22:51:09.577Z,17.58
2023-03-06T22:53:37.347Z,15.90
2023-03-06T22:56:07.734Z,18.38
2023-03-06T22:58:37.355Z,16.17
2023-03-06T23:01:12.736Z,14.02
2023-03-06T23:03:42.523Z,15.32
2023-03-06T23:06:19.204Z,16.08
2023-03-06T23:08:53.928Z,13.13
2023-03-06T23:11:22.443Z,19.42
2023-03-06T23:14:08.037Z,14.90
2023-03-06T23:16:53.997Z,13.43
2023-03-06T23:19:39.474Z,16.90
2023-03-06T23:22:25.243Z,17.13
2023-03-06T23:25:10.728Z,14.30
2023-03-06T23:27:37.781Z,15.48
2023-03-06T23:30:09.420Z,15.52
2023-03-06T23:32:36.201Z,15.68
2023-03-06T23:35:03.106Z,16.58
2023-03-06T23:37:29.948Z,15.45
2023-03-06T23:39:57.208Z,14.57
2023-03-06T23:42:26.569Z,18.17
2023-03-06T23:44:53.451Z,15.85
2023-03-06T23:47:20.492Z,12.23
2023-03-06T23:49:47.404Z,14.82
2023-03-06T23:52:14.120Z,11.98
2023-03-06T23:54:41.088Z,15.20
2023-03-06T23:57:08.124Z,15.88
2023-03-06T23:59:35.072Z,13.52
